Time;durP1;ratioP1;P1;durP2;ratioP2;P2;SDS_P1;SDS_P2;PMS_P1;PMS_P2;Temp;Humidity;BMP_temperature;BMP_pressure;BME280_temperature;BME280_humidity;BME280_pressure;Samples;Min_cycle;Max_cycle;Signal;HPM_P1;HPM_P2
2022/05/22 00:01:53;;;;;;;5.80;4.97;;;;;;;14.61;85.89;98365.13;4185285;28;21202;-87
2022/05/22 00:03:56;;;;;;;5.40;4.90;;;;;;;14.57;85.67;98368.13;4168932;28;20703;-87
2022/05/22 00:05:59;;;;;;;4.77;4.37;;;;;;;14.54;84.66;98365.75;4171959;28;20642;-87
2022/05/22 00:08:03;;;;;;;5.20;4.70;;;;;;;14.47;85.67;98365.41;4193309;28;20641;-87
2022/05/22 00:10:08;;;;;;;5.07;4.57;;;;;;;14.44;85.78;98364.84;4157177;28;21044;-88
2022/05/22 00:12:12;;;;;;;4.70;4.30;;;;;;;14.44;85.22;98364.84;4187665;28;20631;-87
2022/05/22 00:14:16;;;;;;;5.23;4.10;;;;;;;14.41;85.60;98365.91;4187900;28;20631;-88
2022/05/22 00:16:38;;;;;;;4.70;4.30;;;;;;;14.37;86.02;98368.88;4175235;28;20671;-87
2022/05/22 00:18:41;;;;;;;9.30;4.70;;;;;;;14.34;85.98;98364.72;4191650;28;20671;-88
2022/05/22 00:20:44;;;;;;;5.10;4.70;;;;;;;14.31;86.12;98364.97;4172661;28;20634;-87
2022/05/22 00:22:47;;;;;;;4.83;4.43;;;;;;;14.32;85.36;98368.41;4156395;28;20687;-88
2022/05/22 00:24:52;;;;;;;12.20;5.53;;;;;;;14.27;86.13;98371.41;4156337;28;20657;-87
2022/05/22 00:26:55;;;;;;;5.27;4.60;;;;;;;14.24;86.31;98361.16;4159744;28;20636;-87
2022/05/22 00:29:00;;;;;;;5.43;4.50;;;;;;;14.23;86.63;98356.03;4171666;28;20620;-87
2022/05/22 00:31:05;;;;;;;7.07;4.90;;;;;;;14.22;85.83;98351.72;4174676;28;20631;-88
2022/05/22 00:33:08;;;;;;;5.33;4.83;;;;;;;14.13;85.96;98342.81;4180370;28;21323;-88
2022/05/22 00:35:11;;;;;;;6.20;4.60;;;;;;;14.13;86.06;98344.56;4169761;28;20655;-87
2022/05/22 00:37:15;;;;;;;5.10;4.60;;;;;;;14.10;85.77;98334.31;4157935;28;20731;-86
2022/05/22 00:39:20;;;;;;;5.17;4.50;;;;;;;14.09;85.74;98334.44;4179261;28;20617;-88
2022/05/22 00:41:23;;;;;;;6.63;5.10;;;;;;;14.11;85.61;98329.94;4192354;28;20667;-88
2022/05/22 00:43:28;;;;;;;8.60;4.50;;;;;;;14.09;86.06;98340.53;4189927;28;20666;-87
2022/05/22 00:45:31;;;;;;;6.70;4.73;;;;;;;14.11;86.22;98341.25;4193771;28;20633;-87
2022/05/22 00:47:36;;;;;;;6.50;4.93;;;;;;;14.10;86.15;98349.22;4207780;28;20651;-87
2022/05/22 00:49:46;;;;;;;5.10;4.53;;;;;;;14.09;86.42;98342.31;4169422;28;20645;-87
2022/05/22 00:51:52;;;;;;;6.03;4.53;;;;;;;14.03;86.49;98342.78;4159135;28;20667;-87
2022/05/22 00:53:59;;;;;;;5.80;5.03;;;;;;;14.01;86.14;98340.28;4163350;28;20712;-87
2022/05/22 00:56:07;;;;;;;5.53;4.50;;;;;;;13.99;86.00;98342.16;4175954;28;20658;-87
2022/05/22 00:58:13;;;;;;;5.33;4.50;;;;;;;13.98;86.46;98343.13;4190637;28;21216;-87
2022/05/22 01:00:19;;;;;;;5.13;4.37;;;;;;;13.94;86.87;98336.44;4180373;28;20653;-86
2022/05/22 01:03:26;;;;;;;5.67;4.73;;;;;;;13.94;86.39;98338.25;4173789;28;21284;-87
2022/05/22 01:04:54;;;;;;;6.40;4.70;;;;;;;13.91;86.08;98328.81;4159798;28;20655;-87
2022/05/22 01:06:57;;;;;;;4.60;4.20;;;;;;;13.91;87.11;98333.25;4146540;28;20626;-88
2022/05/22 01:09:00;;;;;;;26.00;5.30;;;;;;;13.83;85.50;98325.97;4170959;28;20661;-87
2022/05/22 01:11:06;;;;;;;5.40;4.90;;;;;;;13.76;86.09;98322.13;4172836;28;20742;-88
2022/05/22 01:13:10;;;;;;;5.53;4.20;;;;;;;13.72;85.71;98317.25;4172622;28;20628;-87
2022/05/22 01:15:15;;;;;;;6.13;4.77;;;;;;;13.69;86.44;98322.72;4174313;28;20639;-87
2022/05/22 01:17:18;;;;;;;5.60;4.50;;;;;;;13.68;86.96;98319.28;4165472;28;20675;-87
2022/05/22 01:19:23;;;;;;;6.83;5.00;;;;;;;13.67;85.83;98320.22;4154466;28;20742;-88
2022/05/22 01:21:30;;;;;;;4.73;4.23;;;;;;;13.66;86.11;98320.34;4172926;28;20730;-87
2022/05/22 01:23:34;;;;;;;5.80;4.90;;;;;;;13.66;86.86;98308.06;4162167;28;20649;-87
2022/05/22 01:25:44;;;;;;;5.30;4.33;;;;;;;13.64;87.01;98315.22;4160357;28;21059;-88
2022/05/22 01:27:47;;;;;;;7.47;4.70;;;;;;;13.64;86.23;98315.22;4176739;28;20644;-87
2022/05/22 01:30:11;;;;;;;5.60;4.77;;;;;;;13.66;86.94;98317.72;4177087;28;20639;-88
2022/05/22 01:32:15;;;;;;;5.23;4.73;;;;;;;13.66;86.55;98309.84;4176826;28;20642;-87
2022/05/22 01:34:20;;;;;;;6.50;4.40;;;;;;;13.69;87.07;98309.63;4170852;28;20704;-87
2022/05/22 01:36:24;;;;;;;6.13;4.83;;;;;;;13.64;86.91;98315.22;4160475;28;20703;-88
2022/05/22 01:38:30;;;;;;;7.10;5.00;;;;;;;13.63;87.59;98317.97;4173858;28;20663;-87
2022/05/22 01:40:35;;;;;;;5.80;4.87;;;;;;;13.59;87.21;98321.78;4161572;28;20710;-87
2022/05/22 01:42:39;;;;;;;6.27;4.93;;;;;;;13.57;86.35;98323.66;4177225;28;21253;-88
2022/05/22 01:44:43;;;;;;;5.60;5.00;;;;;;;13.58;87.23;98319.28;4175000;28;20998;-87
2022/05/22 01:46:46;;;;;;;5.53;5.03;;;;;;;13.54;86.60;98323.06;4177777;28;20742;-88
2022/05/22 01:48:50;;;;;;;5.20;4.60;;;;;;;13.53;86.20;98319.63;4172031;28;20630;-87
2022/05/22 01:50:57;;;;;;;6.50;5.00;;;;;;;13.53;85.82;98317.00;4176190;28;20962;-87
2022/05/22 01:53:00;;;;;;;5.20;4.70;;;;;;;13.47;86.68;98327.09;4174317;28;20629;-87
2022/05/22 01:55:05;;;;;;;9.30;5.27;;;;;;;13.46;86.87;98320.22;4175769;28;20643;-89
2022/05/22 01:57:10;;;;;;;5.57;4.80;;;;;;;13.47;86.46;98314.00;4193105;28;20765;-88
2022/05/22 01:59:13;;;;;;;5.50;5.00;;;;;;;13.44;86.38;98320.34;4172695;28;21160;-87
2022/05/22 02:01:27;;;;;;;5.97;4.50;;;;;;;13.41;87.43;98325.81;4173222;28;20634;-88
2022/05/22 02:03:35;;;;;;;7.13;5.13;;;;;;;13.42;86.05;98313.53;4160594;28;20642;-87
2022/05/22 02:05:39;;;;;;;5.30;4.80;;;;;;;13.44;87.44;98316.84;4158255;28;20722;-87
2022/05/22 02:10:06;;;;;;;5.13;4.60;;;;;;;13.37;87.33;98310.44;4160417;28;20664;-88
2022/05/22 02:12:11;;;;;;;8.80;5.07;;;;;;;13.32;86.40;98313.41;4156931;28;20632;-89
2022/05/22 02:14:15;;;;;;;6.13;4.60;;;;;;;13.27;87.39;98302.41;4174843;28;20721;-88
2022/05/22 02:16:22;;;;;;;5.30;4.80;;;;;;;13.23;87.32;98298.38;4161504;28;20670;-88
2022/05/22 02:18:25;;;;;;;5.53;5.00;;;;;;;13.22;86.20;98295.88;4173428;28;20655;-87
2022/05/22 02:20:29;;;;;;;7.90;4.90;;;;;;;13.20;86.61;98292.53;4172123;28;20734;-87
2022/05/22 02:22:33;;;;;;;5.57;4.93;;;;;;;13.23;86.22;98303.63;4173208;28;20677;-88
2022/05/22 02:24:36;;;;;;;5.77;5.17;;;;;;;13.29;87.59;98297.91;4159072;28;20630;-87
2022/05/22 02:26:47;;;;;;;5.90;4.97;;;;;;;13.24;86.55;98299.19;4161484;28;20683;-87
2022/05/22 02:28:52;;;;;;;6.00;4.80;;;;;;;13.19;86.66;98290.88;4158471;28;21165;-88
2022/05/22 02:30:59;;;;;;;8.83;4.87;;;;;;;13.18;87.47;98295.28;4156743;28;20713;-87
2022/05/22 02:33:02;;;;;;;5.70;5.10;;;;;;;13.16;87.34;98288.47;4155162;28;20742;-87
2022/05/22 02:35:14;;;;;;;5.10;4.60;;;;;;;13.17;87.97;98294.53;4177184;28;20614;-87
2022/05/22 02:37:17;;;;;;;5.97;4.73;;;;;;;13.16;86.20;98287.66;4190205;28;21099;-87
2022/05/22 02:39:21;;;;;;;5.90;5.20;;;;;;;13.13;87.46;98286.09;4159713;28;20667;-87
2022/05/22 02:41:25;;;;;;;6.37;5.13;;;;;;;13.11;86.50;98282.75;4156007;28;21010;-89
2022/05/22 02:43:30;;;;;;;5.53;5.03;;;;;;;13.11;86.32;98288.00;4157751;28;20647;-88
2022/05/22 02:45:37;;;;;;;5.30;4.80;;;;;;;13.06;87.24;98277.00;4169085;28;20682;-88
2022/05/22 02:47:44;;;;;;;5.10;4.70;;;;;;;13.05;86.56;98285.84;4173795;28;21273;-87
2022/05/22 02:49:47;;;;;;;6.10;4.90;;;;;;;13.02;88.37;98283.44;4169971;28;20677;-88
2022/05/22 02:51:50;;;;;;;6.23;5.03;;;;;;;13.01;87.99;98275.69;4176275;28;20637;-87
2022/05/22 02:53:54;;;;;;;8.60;5.20;;;;;;;13.00;88.42;98281.88;4185245;28;20733;-87
2022/05/22 02:56:17;;;;;;;5.50;5.00;;;;;;;12.96;87.75;98278.66;4173149;28;20635;-88
2022/05/22 02:58:39;;;;;;;5.70;4.90;;;;;;;12.98;86.85;98273.31;4175331;28;20636;-87
2022/05/22 03:00:45;;;;;;;6.37;4.90;;;;;;;12.97;88.27;98272.47;4173321;28;20626;-87
2022/05/22 03:02:48;;;;;;;5.80;4.70;;;;;;;12.95;88.61;98261.28;4162046;28;20674;-87
2022/05/22 03:04:52;;;;;;;7.67;4.80;;;;;;;12.93;87.55;98260.56;4192406;28;20731;-87
2022/05/22 03:06:54;;;;;;;6.20;5.60;;;;;;;12.94;87.68;98256.16;4154340;28;20633;-89
2022/05/22 03:08:57;;;;;;;5.93;5.40;;;;;;;12.92;88.42;98256.28;4177251;28;20756;-89
2022/05/22 03:11:03;;;;;;;6.10;5.60;;;;;;;12.97;88.29;98264.59;4159852;28;20685;-87
2022/05/22 03:13:07;;;;;;;6.30;5.40;;;;;;;13.03;88.12;98258.91;4160541;28;20634;-88
2022/05/22 03:15:14;;;;;;;6.67;5.00;;;;;;;12.96;87.02;98257.72;4158289;28;20666;-88
2022/05/22 03:17:19;;;;;;;5.57;5.07;;;;;;;12.91;86.53;98259.81;4161574;28;20988;-88
2022/05/22 03:19:33;;;;;;;5.40;4.73;;;;;;;12.84;86.88;98253.41;4172557;28;21018;-87
2022/05/22 03:21:37;;;;;;;5.20;4.70;;;;;;;12.81;88.25;98250.16;4170774;28;20744;-87
2022/05/22 03:23:41;;;;;;;5.80;4.50;;;;;;;12.80;86.60;98238.00;4174726;28;20672;-87
2022/05/22 03:25:46;;;;;;;8.00;5.40;;;;;;;12.75;87.81;98229.69;4177796;28;20663;-88
2022/05/22 03:27:52;;;;;;;7.47;5.10;;;;;;;12.76;87.24;98226.09;4158818;28;21068;-88
2022/05/22 03:29:56;;;;;;;6.33;5.30;;;;;;;12.75;88.36;98233.13;4184051;28;20671;-87
2022/05/22 03:31:59;;;;;;;5.43;4.93;;;;;;;12.73;88.60;98232.41;4163117;28;21243;-87
2022/05/22 03:34:04;;;;;;;6.10;5.03;;;;;;;12.73;88.01;98231.56;4189686;28;20692;-87
2022/05/22 03:36:08;;;;;;;7.20;5.60;;;;;;;12.79;86.80;98241.56;4159045;28;20626;-87
2022/05/22 03:38:11;;;;;;;5.60;4.90;;;;;;;12.81;87.38;98242.31;4156926;28;20643;-88
2022/05/22 03:40:15;;;;;;;5.70;5.20;;;;;;;12.81;87.11;98244.91;4172833;28;20638;-88
2022/05/22 03:42:19;;;;;;;6.00;5.40;;;;;;;12.81;88.14;98243.13;4173200;28;20657;-87
2022/05/22 03:44:23;;;;;;;5.07;4.57;;;;;;;12.80;88.07;98233.59;4171681;28;20619;-87
2022/05/22 03:46:27;;;;;;;6.30;5.20;;;;;;;12.76;87.13;98245.25;4187417;28;21524;-87
2022/05/22 03:48:30;;;;;;;7.10;5.60;;;;;;;12.75;87.79;98234.91;4173756;28;20635;-87
2022/05/22 03:50:35;;;;;;;5.40;4.90;;;;;;;12.75;88.26;98240.97;4168900;28;20684;-87
2022/05/22 03:52:40;;;;;;;6.17;5.17;;;;;;;12.76;88.74;98226.94;4155978;28;20627;-87
2022/05/22 03:54:53;;;;;;;5.60;5.07;;;;;;;12.76;86.92;98231.31;4163414;28;20636;-87
2022/05/22 03:56:57;;;;;;;7.50;5.60;;;;;;;12.75;88.20;98227.06;4158204;28;20634;-87
2022/05/22 03:59:08;;;;;;;5.47;4.97;;;;;;;12.79;87.78;98229.34;4155760;28;20643;-87
2022/05/22 04:01:11;;;;;;;6.40;5.23;;;;;;;12.81;88.15;98239.69;4192879;28;20739;-87
2022/05/22 04:03:23;;;;;;;6.23;5.63;;;;;;;12.86;87.41;98229.72;4177265;28;20661;-87
2022/05/22 04:05:31;;;;;;;6.03;5.30;;;;;;;12.90;87.08;98231.16;4188786;28;20639;-87
2022/05/22 04:07:38;;;;;;;6.00;5.40;;;;;;;12.90;87.36;98226.75;4157027;28;20634;-88
2022/05/22 04:09:42;;;;;;;7.53;4.87;;;;;;;12.96;87.91;98231.53;4191024;28;20762;-88
2022/05/22 04:11:51;;;;;;;6.53;5.33;;;;;;;13.03;87.13;98234.53;4175045;28;20634;-87
2022/05/22 04:13:56;;;;;;;5.67;5.03;;;;;;;13.07;87.07;98230.72;4172241;28;20990;-87
2022/05/22 04:15:59;;;;;;;5.97;5.37;;;;;;;13.13;88.75;98227.66;4173961;28;20640;-87
2022/05/22 04:18:03;;;;;;;6.03;5.23;;;;;;;13.17;88.72;98244.78;4170873;28;21282;-87
2022/05/22 04:20:08;;;;;;;6.70;5.63;;;;;;;13.19;88.53;98233.25;4171469;28;20640;-87
2022/05/22 04:22:15;;;;;;;6.23;5.60;;;;;;;13.26;87.76;98232.66;4175163;28;20646;-88
2022/05/22 04:26:42;;;;;;;6.53;5.80;;;;;;;13.33;87.07;98236.44;4180540;28;20646;-87
2022/05/22 04:28:47;;;;;;;9.57;5.63;;;;;;;13.40;88.03;98231.59;4172151;28;20630;-88
2022/05/22 04:30:58;;;;;;;6.00;5.40;;;;;;;13.45;87.22;98224.22;4175508;28;20634;-87
2022/05/22 04:33:02;;;;;;;8.30;6.23;;;;;;;13.48;87.08;98222.16;4174154;28;20641;-88
2022/05/22 04:35:06;;;;;;;6.67;6.00;;;;;;;13.51;86.39;98224.56;4189650;28;20641;-87
2022/05/22 04:37:10;;;;;;;8.70;6.43;;;;;;;13.54;86.75;98213.84;4156355;28;20623;-87
2022/05/22 04:39:18;;;;;;;6.33;5.73;;;;;;;13.57;86.83;98216.22;4175376;28;20724;-88
2022/05/22 04:41:33;;;;;;;6.20;5.70;;;;;;;13.62;87.49;98215.84;4184146;28;20671;-87
2022/05/22 04:43:37;;;;;;;8.03;6.30;;;;;;;13.63;86.67;98217.53;4171493;28;20640;-87
2022/05/22 04:45:40;;;;;;;7.53;6.03;;;;;;;13.70;87.53;98219.56;4179437;28;20743;-87
2022/05/22 04:47:59;;;;;;;6.73;6.00;;;;;;;13.77;87.49;98221.56;4154566;28;20639;-87
2022/05/22 04:50:10;;;;;;;7.00;6.13;;;;;;;13.83;85.40;98220.25;4175942;28;20642;-87
2022/05/22 04:52:34;;;;;;;6.97;6.27;;;;;;;13.86;86.05;98222.63;4176005;28;20639;-87
2022/05/22 04:54:37;;;;;;;7.07;6.40;;;;;;;13.90;86.93;98216.19;4160456;28;21249;-87
2022/05/22 04:56:42;;;;;;;6.27;5.50;;;;;;;13.99;86.08;98216.28;4177408;28;20642;-87
2022/05/22 04:58:51;;;;;;;8.20;6.27;;;;;;;14.04;87.42;98213.28;4194201;28;21218;-87
2022/05/22 05:00:57;;;;;;;7.83;6.20;;;;;;;14.09;87.01;98219.03;4174132;28;20641;-88
2022/05/22 05:03:09;;;;;;;7.07;6.37;;;;;;;14.14;85.65;98221.16;4175949;28;21279;-88
2022/05/22 05:05:13;;;;;;;6.33;5.70;;;;;;;14.15;86.84;98220.22;4161422;28;21213;-88
2022/05/22 05:07:16;;;;;;;7.57;5.97;;;;;;;14.19;86.60;98220.78;4161851;28;20639;-88
2022/05/22 05:09:22;;;;;;;6.70;6.10;;;;;;;14.29;85.79;98219.94;4179100;28;21272;-87
2022/05/22 05:11:28;;;;;;;7.40;6.00;;;;;;;14.32;86.08;98214.44;4163894;28;21296;-88
2022/05/22 05:13:40;;;;;;;6.97;6.20;;;;;;;14.37;85.69;98211.44;4174387;28;20699;-87
2022/05/22 05:15:45;;;;;;;6.93;6.23;;;;;;;14.41;85.68;98207.63;4175945;28;21264;-87
2022/05/22 05:17:56;;;;;;;7.27;6.30;;;;;;;14.44;84.40;98208.19;4158975;28;21170;-87
2022/05/22 05:20:01;;;;;;;7.13;6.53;;;;;;;14.45;86.42;98204.63;4189066;28;20631;-87
2022/05/22 05:22:13;;;;;;;8.20;5.80;;;;;;;14.50;86.67;98204.22;4176461;28;21289;-88
2022/05/22 05:24:17;;;;;;;6.33;5.73;;;;;;;14.56;85.92;98201.13;4191200;28;20638;-88
2022/05/22 05:26:20;;;;;;;6.70;6.00;;;;;;;14.57;86.19;98203.59;4176503;28;21073;-90
2022/05/22 05:28:23;;;;;;;6.73;6.03;;;;;;;14.60;87.00;98201.56;4163265;28;20690;-87
2022/05/22 05:30:28;;;;;;;7.73;5.87;;;;;;;14.66;86.03;98198.41;4162700;28;21223;-87
2022/05/22 05:32:32;;;;;;;6.20;5.60;;;;;;;14.75;86.32;98202.91;4171863;28;20691;-87
2022/05/22 05:34:35;;;;;;;6.37;5.77;;;;;;;14.90;86.49;98206.03;4192246;28;21046;-87
2022/05/22 05:37:02;;;;;;;6.53;5.90;;;;;;;15.13;86.42;98200.53;4177573;28;20636;-87
2022/05/22 05:39:27;;;;;;;6.67;5.97;;;;;;;15.42;85.51;98207.63;4175405;28;20656;-87
2022/05/22 05:41:40;;;;;;;6.60;5.80;;;;;;;15.72;84.72;98211.06;4174374;28;20639;-87
2022/05/22 05:43:43;;;;;;;7.20;5.60;;;;;;;16.06;84.03;98207.16;4178155;28;20616;-87
2022/05/22 05:45:48;;;;;;;6.90;5.47;;;;;;;16.39;83.36;98209.44;4161057;28;21065;-87
2022/05/22 05:47:52;;;;;;;6.67;6.07;;;;;;;16.72;83.67;98201.97;4175617;28;20672;-87
2022/05/22 05:50:09;;;;;;;6.17;5.57;;;;;;;17.09;82.66;98211.63;4157171;28;20698;-87
2022/05/22 05:52:51;;;;;;;5.63;5.13;;;;;;;17.46;80.79;98216.00;4186422;28;20636;-87
2022/05/22 05:55:14;;;;;;;5.90;5.37;;;;;;;17.74;79.14;98205.34;4197206;28;20635;-87
2022/05/22 05:57:47;;;;;;;6.40;5.80;;;;;;;18.06;79.21;98206.56;4176461;28;20679;-87
2022/05/22 05:59:53;;;;;;;6.20;5.60;;;;;;;18.33;78.36;98211.00;4167061;28;20726;-87
2022/05/22 06:01:59;;;;;;;5.70;5.10;;;;;;;18.57;77.11;98202.34;4161827;28;21066;-87
2022/05/22 06:04:03;;;;;;;6.77;5.83;;;;;;;18.80;76.53;98194.78;4162568;28;20642;-88
2022/05/22 06:06:07;;;;;;;6.80;5.43;;;;;;;18.99;75.81;98198.91;4178148;28;20994;-87
2022/05/22 06:08:13;;;;;;;6.30;5.50;;;;;;;19.18;74.93;98195.25;4159365;28;20637;-87
2022/05/22 06:10:16;;;;;;;5.60;5.03;;;;;;;19.39;74.50;98200.06;4160872;28;21244;-86
2022/05/22 06:12:32;;;;;;;5.80;4.97;;;;;;;19.65;75.56;98198.22;4176169;28;21107;-87
2022/05/22 06:14:41;;;;;;;4.83;4.33;;;;;;;19.85;73.73;98199.63;4173318;28;20673;-87
2022/05/22 06:16:45;;;;;;;5.93;4.90;;;;;;;20.01;72.46;98199.69;4161255;28;20660;-87
2022/05/22 06:18:51;;;;;;;5.20;4.70;;;;;;;20.21;72.38;98201.13;4162948;28;20712;-87
2022/05/22 06:20:54;;;;;;;5.43;4.93;;;;;;;20.43;72.12;98199.50;4158578;28;20645;-87
2022/05/22 06:23:00;;;;;;;4.97;4.47;;;;;;;20.66;71.75;98197.88;4175154;28;21257;-87
2022/05/22 06:25:22;;;;;;;4.20;3.50;;;;;;;20.89;70.29;98193.63;4173737;28;21200;-87
2022/05/22 06:27:54;;;;;;;4.60;4.03;;;;;;;21.13;69.44;98193.63;4194668;28;20641;-87
2022/05/22 06:30:18;;;;;;;6.33;4.20;;;;;;;21.28;68.46;98190.09;4190893;28;20621;-87
2022/05/22 06:32:48;;;;;;;5.90;3.93;;;;;;;21.49;67.96;98182.47;4170585;28;21186;-87
2022/05/22 06:35:16;;;;;;;5.23;4.17;;;;;;;21.79;68.80;98191.31;4172088;28;20629;-87
2022/05/22 06:37:23;;;;;;;5.90;4.30;;;;;;;21.90;65.33;98193.59;4179639;28;21512;-90
2022/05/22 06:39:55;;;;;;;4.37;3.97;;;;;;;22.12;71.08;98192.84;4165691;28;20699;-87
2022/05/22 06:42:18;;;;;;;4.40;3.87;;;;;;;22.34;64.71;98195.59;4178371;28;21232;-87
2022/05/22 06:44:44;;;;;;;7.60;4.40;;;;;;;22.56;68.21;98197.44;4165561;28;20638;-88
2022/05/22 06:47:20;;;;;;;5.23;4.40;;;;;;;22.86;67.03;98199.22;4154240;28;20643;-87
2022/05/22 06:49:58;;;;;;;4.17;3.77;;;;;;;22.99;67.53;98204.81;4164853;28;21230;-88
2022/05/22 06:52:42;;;;;;;4.37;3.80;;;;;;;23.24;67.62;98202.59;4171891;28;21225;-87
2022/05/22 06:54:58;;;;;;;5.03;4.00;;;;;;;23.33;62.12;98198.00;4162679;28;20881;-87
2022/05/22 06:57:09;;;;;;;5.40;4.10;;;;;;;23.30;64.55;98207.22;4165253;28;21062;-87
2022/05/22 06:59:31;;;;;;;4.27;3.87;;;;;;;23.43;65.58;98207.41;4176381;28;20649;-86
2022/05/22 07:01:53;;;;;;;4.33;3.60;;;;;;;23.43;60.93;98210.06;4191320;28;21041;-89
2022/05/22 07:04:16;;;;;;;4.63;3.70;;;;;;;23.57;64.13;98211.09;4176428;28;20682;-92
2022/05/22 07:06:26;;;;;;;4.30;3.80;;;;;;;23.72;59.72;98199.47;4192926;28;21075;-90
2022/05/22 07:08:49;;;;;;;3.93;3.43;;;;;;;23.67;60.64;98204.53;4179812;28;21118;-92
2022/05/22 07:11:40;;;;;;;4.10;3.43;;;;;;;23.70;60.48;98202.31;4145453;28;20633;-90
2022/05/22 07:13:55;;;;;;;4.57;3.50;;;;;;;23.89;63.07;98212.44;4141752;28;20635;-90
2022/05/22 07:16:03;;;;;;;3.70;3.03;;;;;;;24.01;61.56;98204.78;4134510;28;21266;-90
2022/05/22 07:18:36;;;;;;;5.17;3.43;;;;;;;24.00;59.20;98203.97;4161112;28;20614;-91
2022/05/22 07:20:59;;;;;;;6.87;5.00;;;;;;;24.14;62.79;98199.63;4172486;28;20629;-91
2022/05/22 07:23:08;;;;;;;5.40;4.60;;;;;;;24.24;61.47;98199.16;4161236;28;21195;-90
2022/05/22 07:25:33;;;;;;;5.77;4.00;;;;;;;24.34;58.03;98198.88;4188162;28;20656;-90
2022/05/22 07:27:41;;;;;;;4.77;3.10;;;;;;;24.30;57.90;98193.06;4190068;28;20612;-91
2022/05/22 07:29:50;;;;;;;4.27;3.20;;;;;;;24.48;59.15;98198.84;4204701;28;21370;-90
2022/05/22 07:32:05;;;;;;;6.03;3.80;;;;;;;24.69;60.10;98185.53;4177195;28;20749;-90
2022/05/22 07:34:28;;;;;;;3.40;3.00;;;;;;;24.82;60.03;98185.66;4182175;28;20744;-93
2022/05/22 07:36:55;;;;;;;6.03;3.57;;;;;;;24.96;61.37;98185.59;4175840;28;21214;-90
2022/05/22 07:39:17;;;;;;;3.70;3.07;;;;;;;25.10;62.59;98183.91;4179315;28;20639;-90
2022/05/22 07:41:40;;;;;;;5.00;3.90;;;;;;;25.20;58.71;98178.03;4189661;28;20673;-91
2022/05/22 07:44:06;;;;;;;4.00;3.30;;;;;;;25.26;60.41;98182.59;4175376;28;20664;-90
2022/05/22 07:46:18;;;;;;;4.47;2.80;;;;;;;25.41;59.88;98167.31;4190110;28;20639;-91
2022/05/22 07:48:29;;;;;;;4.07;3.20;;;;;;;25.52;60.12;98166.75;4191584;28;20642;-91
2022/05/22 07:50:43;;;;;;;3.73;3.20;;;;;;;25.63;59.07;98169.72;4167809;28;21010;-91
2022/05/22 07:53:21;;;;;;;3.90;3.40;;;;;;;25.77;58.83;98165.28;4156093;28;21259;-91
2022/05/22 07:55:51;;;;;;;5.80;3.33;;;;;;;25.79;58.47;98174.78;4132956;28;21223;-91
2022/05/22 07:58:10;;;;;;;3.10;2.87;;;;;;;25.87;58.01;98163.09;4161328;28;20632;-91
2022/05/22 08:00:22;;;;;;;4.53;4.07;;;;;;;26.08;61.36;98157.66;4158529;28;20719;-91
2022/05/22 08:02:32;;;;;;;4.13;2.87;;;;;;;26.13;56.77;98159.53;4160664;28;20656;-91
2022/05/22 08:04:36;;;;;;;4.23;2.80;;;;;;;26.17;57.38;98157.28;4161126;28;20629;-91
2022/05/22 08:07:00;;;;;;;2.70;2.33;;;;;;;26.16;57.74;98155.59;4156970;28;20633;-91
2022/05/22 08:09:17;;;;;;;2.70;2.40;;;;;;;26.19;56.59;98149.84;4173037;28;20660;-92
2022/05/22 08:11:24;;;;;;;3.73;2.70;;;;;;;26.13;55.93;98143.47;4158772;28;21219;-91
2022/05/22 08:13:39;;;;;;;4.40;2.60;;;;;;;26.26;58.34;98142.69;4171555;28;20630;-91
2022/05/22 08:15:43;;;;;;;4.07;3.07;;;;;;;26.36;59.22;98140.50;4165523;28;20652;-92
2022/05/22 08:18:08;;;;;;;4.10;3.00;;;;;;;26.35;54.93;98136.97;4186318;28;20673;-91
2022/05/22 08:20:14;;;;;;;3.30;2.63;;;;;;;26.41;55.29;98138.84;4165761;28;20688;-91
2022/05/22 08:22:42;;;;;;;3.17;2.40;;;;;;;26.36;53.54;98127.13;4160549;28;20660;-91
2022/05/22 08:25:08;;;;;;;3.50;2.30;;;;;;;26.33;54.68;98123.00;4190377;28;21094;-91
2022/05/22 08:27:15;;;;;;;5.80;2.40;;;;;;;26.34;56.31;98116.63;4158402;28;21231;-90
2022/05/22 08:29:20;;;;;;;9.97;8.97;;;;;;;26.42;58.14;98120.97;4156969;28;20777;-91
2022/05/22 08:31:24;;;;;;;3.40;2.60;;;;;;;26.57;57.68;98125.13;4160457;28;21220;-91
2022/05/22 08:33:30;;;;;;;3.23;1.90;;;;;;;26.77;54.19;98125.97;4177064;28;21233;-90
2022/05/22 08:35:37;;;;;;;3.00;1.80;;;;;;;26.91;53.47;98117.75;4192642;28;20639;-90
2022/05/22 08:37:40;;;;;;;2.90;1.90;;;;;;;26.83;53.67;98125.13;4177266;28;21184;-91
2022/05/22 08:39:45;;;;;;;4.83;2.07;;;;;;;26.79;53.64;98114.03;4159637;28;20611;-91
2022/05/22 08:41:50;;;;;;;4.10;2.00;;;;;;;26.90;53.06;98109.91;4171201;28;20790;-91
2022/05/22 08:44:02;;;;;;;5.23;2.00;;;;;;;27.08;56.00;98119.81;4174937;28;20691;-91
2022/05/22 08:46:09;;;;;;;3.60;1.67;;;;;;;27.07;53.47;98110.13;4156341;28;21208;-90
2022/05/22 08:48:16;;;;;;;6.53;2.73;;;;;;;27.08;55.30;98103.75;4177401;28;20621;-91
2022/05/22 08:50:20;;;;;;;3.73;2.50;;;;;;;27.04;53.34;98104.38;4174227;28;20652;-91
2022/05/22 08:52:29;;;;;;;3.57;2.33;;;;;;;27.02;56.56;98097.56;4159550;28;20658;-91
2022/05/22 08:54:40;;;;;;;3.20;2.07;;;;;;;27.12;53.54;98096.94;4185733;28;20636;-91
2022/05/22 08:59:12;;;;;;;2.83;2.20;;;;;;;27.16;55.65;98094.66;4186316;28;20741;-91
2022/05/22 09:01:21;;;;;;;2.63;1.83;;;;;;;27.06;52.32;98087.06;4190728;28;20643;-91
2022/05/22 09:03:28;;;;;;;3.13;1.90;;;;;;;27.03;53.10;98083.94;4187410;28;20605;-91
2022/05/22 09:05:33;;;;;;;3.73;2.00;;;;;;;27.05;51.83;98087.28;4157666;28;20661;-91
2022/05/22 09:07:45;;;;;;;4.03;1.90;;;;;;;27.09;49.66;98085.81;4178392;28;20639;-90
2022/05/22 09:09:52;;;;;;;3.47;1.50;;;;;;;26.86;50.79;98080.03;4158598;28;20661;-91
2022/05/22 09:12:05;;;;;;;2.43;1.70;;;;;;;26.63;50.71;98070.75;4191195;28;20695;-91
2022/05/22 09:14:11;;;;;;;2.43;1.60;;;;;;;26.59;54.48;98074.88;4160020;28;21419;-91
2022/05/22 09:16:19;;;;;;;3.63;1.80;;;;;;;26.50;48.91;98077.94;4177023;28;20653;-92
2022/05/22 09:18:28;;;;;;;3.10;1.77;;;;;;;26.29;50.41;98065.53;4160155;28;20691;-92
2022/05/22 09:20:39;;;;;;;2.80;1.80;;;;;;;26.22;50.51;98062.03;4172811;28;21320;-92
2022/05/22 09:23:03;;;;;;;2.73;2.00;;;;;;;26.09;51.14;98064.66;4160677;28;20664;-92
2022/05/22 09:25:14;;;;;;;3.57;2.20;;;;;;;26.01;53.31;98053.31;4155554;28;20645;-91
2022/05/22 09:27:21;;;;;;;4.97;1.70;;;;;;;26.08;53.99;98051.47;4154756;28;20637;-91
2022/05/22 09:29:48;;;;;;;2.43;1.83;;;;;;;26.33;51.66;98056.09;4187000;28;20676;-91
2022/05/22 09:32:03;;;;;;;2.80;2.20;;;;;;;26.56;55.26;98056.53;4182744;28;20628;-91
2022/05/22 09:34:13;;;;;;;3.77;1.63;;;;;;;26.76;57.34;98054.69;4176153;28;20632;-91
2022/05/22 09:36:26;;;;;;;2.90;2.13;;;;;;;26.88;52.54;98053.03;4174830;28;20682;-91
2022/05/22 09:39:00;;;;;;;2.73;1.93;;;;;;;26.79;54.76;98044.41;4142092;28;21324;-91
2022/05/22 09:41:09;;;;;;;4.80;2.20;;;;;;;26.74;52.98;98043.38;4160407;28;20671;-91
2022/05/22 09:43:32;;;;;;;3.40;2.10;;;;;;;26.74;54.78;98046.84;4172432;28;20727;-92
2022/05/22 09:45:50;;;;;;;5.63;2.23;;;;;;;26.83;54.69;98053.66;4163165;28;20630;-91
2022/05/22 09:48:41;;;;;;;2.80;1.83;;;;;;;26.91;51.52;98050.78;4185967;28;20633;-91
2022/05/22 09:50:49;;;;;;;2.33;1.83;;;;;;;26.83;54.77;98052.84;4137274;28;20994;-91
2022/05/22 09:52:58;;;;;;;2.73;1.80;;;;;;;26.88;53.92;98045.00;4187602;28;21079;-90
2022/05/22 09:55:11;;;;;;;3.50;1.83;;;;;;;26.97;54.91;98047.28;4164208;28;21379;-93
2022/05/22 09:57:26;;;;;;;3.67;2.30;;;;;;;26.98;55.33;98032.88;4166132;28;21074;-95
2022/05/22 09:59:42;;;;;;;4.20;2.03;;;;;;;27.01;53.87;98048.53;4186661;28;20659;-95
2022/05/22 10:01:50;;;;;;;3.83;1.77;;;;;;;26.99;55.14;98045.25;4178857;28;20906;-95
2022/05/22 10:04:04;;;;;;;2.87;2.07;;;;;;;26.94;52.56;98042.34;4166348;28;20667;-96
2022/05/22 10:06:15;;;;;;;2.73;1.80;;;;;;;26.87;52.89;98028.13;4182838;28;20632;-96
2022/05/22 10:08:30;;;;;;;3.00;2.30;;;;;;;26.87;52.95;98030.78;4182036;28;20632;-91
2022/05/22 10:10:40;;;;;;;4.87;2.00;;;;;;;26.83;52.55;98034.91;4164722;28;20629;-91
2022/05/22 10:12:51;;;;;;;3.27;1.80;;;;;;;26.61;52.44;98030.81;4183623;28;20636;-90
2022/05/22 10:15:04;;;;;;;3.40;1.90;;;;;;;26.48;52.09;98031.84;4175181;28;20636;-87
2022/05/22 10:17:16;;;;;;;4.17;2.00;;;;;;;26.42;52.56;98029.97;4189557;28;20647;-88
2022/05/22 10:19:29;;;;;;;2.60;2.17;;;;;;;26.36;52.59;98026.25;4174611;28;21057;-87
2022/05/22 10:21:41;;;;;;;3.97;2.10;;;;;;;26.37;53.41;98027.91;4191143;28;20639;-87